sensor_id;sensor_type;location;lat;lon;timestamp;noise_LAeq;noise_LA_min;noise_LA_max;noise_LA01;noise_LA95
37223;Laerm;28026;48.562;14.440;2023-02-15T00:02:22;40.16;36.45;44.97;;
37223;Laerm;28026;48.562;14.440;2023-02-15T00:04:54;39.29;34.69;42.53;;
37223;Laerm;28026;48.562;14.440;2023-02-15T00:07:26;38.77;35.04;43.99;;
37223;Laerm;28026;48.562;14.440;2023-02-15T00:09:57;38.88;34.31;47.68;;
37223;Laerm;28026;48.562;14.440;2023-02-15T00:12:28;38.73;34.31;47.91;;
37223;Laerm;28026;48.562;14.440;2023-02-15T00:14:59;42.88;35.04;51.36;;
37223;Laerm;28026;48.562;14.440;2023-02-15T00:17:30;39.14;32.35;58.08;;
37223;Laerm;28026;48.562;14.440;2023-02-15T00:20:01;38.20;34.31;46.52;;
37223;Laerm;28026;48.562;14.440;2023-02-15T00:22:32;38.65;33.90;50.72;;
37223;Laerm;28026;48.562;14.440;2023-02-15T00:25:03;38.55;34.31;55.68;;
37223;Laerm;28026;48.562;14.440;2023-02-15T00:27:34;38.54;33.44;41.96;;
37223;Laerm;28026;48.562;14.440;2023-02-15T00:30:06;39.46;35.66;60.43;;
37223;Laerm;28026;48.562;14.440;2023-02-15T00:32:37;39.94;35.36;62.02;;
37223;Laerm;28026;48.562;14.440;2023-02-15T00:35:08;39.25;35.04;44.73;;
37223;Laerm;28026;48.562;14.440;2023-02-15T00:37:39;39.10;34.69;43.44;;
37223;Laerm;28026;48.562;14.440;2023-02-15T00:40:11;40.32;35.04;55.70;;
37223;Laerm;28026;48.562;14.440;2023-02-15T00:42:42;40.27;34.31;52.73;;
37223;Laerm;28026;48.562;14.440;2023-02-15T00:45:12;38.92;35.04;43.58;;
37223;Laerm;28026;48.562;14.440;2023-02-15T00:47:43;38.41;32.35;56.82;;
37223;Laerm;28026;48.562;14.440;2023-02-15T00:50:14;39.56;34.31;50.30;;
37223;Laerm;28026;48.562;14.440;2023-02-15T00:52:45;38.48;32.93;49.77;;
37223;Laerm;28026;48.562;14.440;2023-02-15T00:55:16;38.99;34.69;56.09;;
37223;Laerm;28026;48.562;14.440;2023-02-15T00:57:47;39.50;35.04;55.57;;
37223;Laerm;28026;48.562;14.440;2023-02-15T01:00:18;38.80;33.90;60.51;;
37223;Laerm;28026;48.562;14.440;2023-02-15T01:02:49;38.07;32.93;49.14;;
37223;Laerm;28026;48.562;14.440;2023-02-15T01:05:19;38.66;33.90;62.10;;
37223;Laerm;28026;48.562;14.440;2023-02-15T01:07:50;38.66;33.90;63.14;;
37223;Laerm;28026;48.562;14.440;2023-02-15T01:10:22;43.82;34.69;54.67;;
37223;Laerm;28026;48.562;14.440;2023-02-15T01:12:55;40.74;33.90;70.38;;
37223;Laerm;28026;48.562;14.440;2023-02-15T01:15:26;39.11;33.44;66.21;;
37223;Laerm;28026;48.562;14.440;2023-02-15T01:17:57;39.18;32.93;67.00;;
37223;Laerm;28026;48.562;14.440;2023-02-15T01:20:29;38.62;33.55;52.86;;
37223;Laerm;28026;48.562;14.440;2023-02-15T01:23:00;39.09;35.04;51.30;;
37223;Laerm;28026;48.562;14.440;2023-02-15T01:25:34;41.95;36.10;45.83;;
37223;Laerm;28026;48.562;14.440;2023-02-15T01:28:05;40.65;34.31;45.04;;
37223;Laerm;28026;48.562;14.440;2023-02-15T01:30:36;38.41;34.31;41.53;;
37223;Laerm;28026;48.562;14.440;2023-02-15T01:33:07;39.60;34.69;49.83;;
37223;Laerm;28026;48.562;14.440;2023-02-15T01:35:42;40.27;35.66;45.07;;
37223;Laerm;28026;48.562;14.440;2023-02-15T01:38:14;39.66;34.69;49.87;;
37223;Laerm;28026;48.562;14.440;2023-02-15T01:40:45;39.52;35.66;51.44;;
37223;Laerm;28026;48.562;14.440;2023-02-15T01:43:15;38.86;34.31;41.61;;
37223;Laerm;28026;48.562;14.440;2023-02-15T01:45:49;38.48;34.69;42.59;;
37223;Laerm;28026;48.562;14.440;2023-02-15T01:48:26;38.51;33.44;41.38;;
37223;Laerm;28026;48.562;14.440;2023-02-15T01:51:01;38.32;33.44;41.22;;
37223;Laerm;28026;48.562;14.440;2023-02-15T01:53:47;38.20;33.90;48.25;;
37223;Laerm;28026;48.562;14.440;2023-02-15T01:56:31;38.35;34.31;41.46;;
37223;Laerm;28026;48.562;14.440;2023-02-15T01:59:16;39.09;34.69;42.59;;
37223;Laerm;28026;48.562;14.440;2023-02-15T02:01:57;38.91;34.69;43.09;;
37223;Laerm;28026;48.562;14.440;2023-02-15T02:04:44;39.14;33.90;43.77;;
37223;Laerm;28026;48.562;14.440;2023-02-15T02:07:21;39.47;33.44;52.48;;
37223;Laerm;28026;48.562;14.440;2023-02-15T02:09:53;39.57;35.04;49.58;;
37223;Laerm;28026;48.562;14.440;2023-02-15T02:12:25;39.77;34.69;52.06;;
37223;Laerm;28026;48.562;14.440;2023-02-15T02:14:58;39.97;35.66;44.19;;
37223;Laerm;28026;48.562;14.440;2023-02-15T02:18:17;39.41;34.31;47.98;;
37223;Laerm;28026;48.562;14.440;2023-02-15T02:28:03;40.55;35.94;53.33;;
37223;Laerm;28026;48.562;14.440;2023-02-15T02:34:21;39.88;36.20;44.27;;
37223;Laerm;28026;48.562;14.440;2023-02-15T02:44:25;39.43;35.36;47.24;;
37223;Laerm;28026;48.562;14.440;2023-02-15T02:47:16;39.15;34.34;50.68;;
37223;Laerm;28026;48.562;14.440;2023-02-15T02:50:00;38.85;34.31;43.09;;
37223;Laerm;28026;48.562;14.440;2023-02-15T02:55:39;39.72;35.36;50.02;;
37223;Laerm;28026;48.562;14.440;2023-02-15T02:58:39;40.47;36.20;56.78;;
37223;Laerm;28026;48.562;14.440;2023-02-15T03:04:19;40.35;35.94;62.26;;
37223;Laerm;28026;48.562;14.440;2023-02-15T03:07:03;41.99;35.36;65.99;;
37223;Laerm;28026;48.562;14.440;2023-02-15T03:09:45;43.24;40.23;67.22;;
37223;Laerm;28026;48.562;14.440;2023-02-15T03:12:24;46.15;39.58;68.42;;
37223;Laerm;28026;48.562;14.440;2023-02-15T03:15:23;42.06;36.45;61.02;;
37223;Laerm;28026;48.562;14.440;2023-02-15T03:18:00;40.88;36.91;55.98;;
37223;Laerm;28026;48.562;14.440;2023-02-15T03:20:37;40.59;36.20;51.44;;
37223;Laerm;28026;48.562;14.440;2023-02-15T03:23:20;40.66;35.94;63.13;;
37223;Laerm;28026;48.562;14.440;2023-02-15T03:26:05;40.23;36.69;60.56;;
37223;Laerm;28026;48.562;14.440;2023-02-15T03:28:50;41.93;36.45;68.57;;
37223;Laerm;28026;48.562;14.440;2023-02-15T03:31:32;40.78;36.20;65.04;;
37223;Laerm;28026;48.562;14.440;2023-02-15T03:34:10;43.24;36.45;73.23;;
37223;Laerm;28026;48.562;14.440;2023-02-15T03:39:42;41.88;37.52;64.96;;
37223;Laerm;28026;48.562;14.440;2023-02-15T03:42:33;44.92;38.21;76.84;;
37223;Laerm;28026;48.562;14.440;2023-02-15T03:45:17;42.40;37.32;59.94;;
37223;Laerm;28026;48.562;14.440;2023-02-15T03:47:57;43.10;37.70;67.26;;
37223;Laerm;28026;48.562;14.440;2023-02-15T03:50:36;42.45;37.88;62.90;;
37223;Laerm;28026;48.562;14.440;2023-02-15T03:53:27;41.01;37.52;59.62;;
37223;Laerm;28026;48.562;14.440;2023-02-15T03:55:59;42.72;36.69;71.43;;
37223;Laerm;28026;48.562;14.440;2023-02-15T03:58:30;41.28;36.45;61.78;;
37223;Laerm;28026;48.562;14.440;2023-02-15T04:01:40;42.51;38.05;66.11;;
37223;Laerm;28026;48.562;14.440;2023-02-15T04:04:45;42.89;38.21;72.19;;
37223;Laerm;28026;48.562;14.440;2023-02-15T04:07:16;42.34;38.21;56.55;;
37223;Laerm;28026;48.562;14.440;2023-02-15T04:09:47;42.71;39.34;51.09;;
37223;Laerm;28026;48.562;14.440;2023-02-15T04:12:36;43.34;39.34;64.62;;
37223;Laerm;28026;48.562;14.440;2023-02-15T04:15:12;43.49;40.13;65.11;;
37223;Laerm;28026;48.562;14.440;2023-02-15T04:18:03;43.11;39.21;66.11;;
37223;Laerm;28026;48.562;14.440;2023-02-15T04:20:34;42.36;38.52;62.31;;
37223;Laerm;28026;48.562;14.440;2023-02-15T04:23:24;42.20;38.52;52.47;;
37223;Laerm;28026;48.562;14.440;2023-02-15T04:26:14;42.94;39.70;56.43;;
37223;Laerm;28026;48.562;14.440;2023-02-15T04:28:44;43.02;38.95;58.32;;
37223;Laerm;28026;48.562;14.440;2023-02-15T04:31:15;44.25;40.23;58.13;;
37223;Laerm;28026;48.562;14.440;2023-02-15T04:33:46;43.42;38.81;59.05;;
37223;Laerm;28026;48.562;14.440;2023-02-15T04:36:18;42.51;38.37;60.13;;
37223;Laerm;28026;48.562;14.440;2023-02-15T04:38:49;42.92;39.34;57.11;;
37223;Laerm;28026;48.562;14.440;2023-02-15T04:41:20;42.65;38.67;57.93;;
37223;Laerm;28026;48.562;14.440;2023-02-15T04:43:51;47.88;41.75;66.32;;
37223;Laerm;28026;48.562;14.440;2023-02-15T04:46:22;44.07;40.53;59.29;;
37223;Laerm;28026;48.562;14.440;2023-02-15T04:48:55;44.91;40.62;65.41;;
37223;Laerm;28026;48.562;14.440;2023-02-15T04:51:26;44.53;40.27;54.66;;
37223;Laerm;28026;48.562;14.440;2023-02-15T04:53:57;44.23;41.14;58.10;;
37223;Laerm;28026;48.562;14.440;2023-02-15T04:56:28;43.09;40.23;54.72;;
37223;Laerm;28026;48.562;14.440;2023-02-15T04:59:00;42.30;39.08;51.67;;
37223;Laerm;28026;48.562;14.440;2023-02-15T05:01:31;42.71;39.57;49.95;;
37223;Laerm;28026;48.562;14.440;2023-02-15T05:04:03;44.58;40.23;55.92;;
37223;Laerm;28026;48.562;14.440;2023-02-15T05:06:34;43.71;40.43;58.07;;
37223;Laerm;28026;48.562;14.440;2023-02-15T05:09:05;45.29;39.58;75.59;;
37223;Laerm;28026;48.562;14.440;2023-02-15T05:11:36;42.02;38.95;46.73;;
37223;Laerm;28026;48.562;14.440;2023-02-15T05:14:07;42.59;38.81;49.30;;
37223;Laerm;28026;48.562;14.440;2023-02-15T05:16:38;43.53;40.43;52.93;;
37223;Laerm;28026;48.562;14.440;2023-02-15T05:19:09;44.18;40.71;56.47;;
37223;Laerm;28026;48.562;14.440;2023-02-15T05:21:40;44.58;40.80;63.45;;
37223;Laerm;28026;48.562;14.440;2023-02-15T05:24:11;44.54;40.62;56.98;;
37223;Laerm;28026;48.562;14.440;2023-02-15T05:27:00;43.77;40.71;60.14;;
37223;Laerm;28026;48.562;14.440;2023-02-15T05:29:49;46.54;41.03;66.63;;
37223;Laerm;28026;48.562;14.440;2023-02-15T05:32:21;43.43;40.23;49.52;;
37223;Laerm;28026;48.562;14.440;2023-02-15T05:34:51;42.93;39.81;49.32;;
37223;Laerm;28026;48.562;14.440;2023-02-15T05:37:22;42.96;39.58;46.10;;
37223;Laerm;28026;48.562;14.440;2023-02-15T05:39:53;43.69;41.22;47.54;;
37223;Laerm;28026;48.562;14.440;2023-02-15T05:42:24;43.16;39.70;56.91;;
37223;Laerm;28026;48.562;14.440;2023-02-15T05:44:55;43.61;39.81;52.40;;
37223;Laerm;28026;48.562;14.440;2023-02-15T05:47:26;43.81;40.13;62.26;;
37223;Laerm;28026;48.562;14.440;2023-02-15T05:49:56;44.89;40.13;63.44;;
37223;Laerm;28026;48.562;14.440;2023-02-15T05:52:27;43.49;40.62;51.36;;
37223;Laerm;28026;48.562;14.440;2023-02-15T05:54:58;42.67;39.34;52.66;;
37223;Laerm;28026;48.562;14.440;2023-02-15T05:57:30;46.68;40.13;63.57;;
37223;Laerm;28026;48.562;14.440;2023-02-15T06:00:04;44.55;41.61;60.05;;
37223;Laerm;28026;48.562;14.440;2023-02-15T06:02:37;45.95;41.38;60.01;;
37223;Laerm;28026;48.562;14.440;2023-02-15T06:05:08;46.28;43.14;57.21;;
37223;Laerm;28026;48.562;14.440;2023-02-15T06:07:43;44.91;40.98;60.99;;
37223;Laerm;28026;48.562;14.440;2023-02-15T06:10:15;43.62;40.62;59.21;;
37223;Laerm;28026;48.562;14.440;2023-02-15T06:12:46;43.33;40.79;52.12;;
37223;Laerm;28026;48.562;14.440;2023-02-15T06:15:17;43.93;41.06;55.07;;
37223;Laerm;28026;48.562;14.440;2023-02-15T06:17:48;44.77;41.82;54.59;;
37223;Laerm;28026;48.562;14.440;2023-02-15T06:20:20;44.56;41.38;57.91;;
37223;Laerm;28026;48.562;14.440;2023-02-15T06:22:51;44.42;41.68;53.37;;
37223;Laerm;28026;48.562;14.440;2023-02-15T06:25:21;44.19;41.46;53.12;;
37223;Laerm;28026;48.562;14.440;2023-02-15T06:27:52;43.00;39.92;61.66;;
37223;Laerm;28026;48.562;14.440;2023-02-15T06:30:23;43.48;40.71;48.95;;
37223;Laerm;28026;48.562;14.440;2023-02-15T06:32:54;43.17;40.98;47.74;;
37223;Laerm;28026;48.562;14.440;2023-02-15T06:35:25;42.92;39.92;55.86;;
37223;Laerm;28026;48.562;14.440;2023-02-15T06:37:56;43.14;40.53;47.42;;
37223;Laerm;28026;48.562;14.440;2023-02-15T06:40:27;43.19;39.46;54.54;;
37223;Laerm;28026;48.562;14.440;2023-02-15T06:42:57;42.94;39.78;56.79;;
37223;Laerm;28026;48.562;14.440;2023-02-15T06:45:28;44.92;41.53;59.96;;
37223;Laerm;28026;48.562;14.440;2023-02-15T06:47:59;43.54;41.30;51.41;;
37223;Laerm;28026;48.562;14.440;2023-02-15T06:50:30;47.04;40.62;58.41;;
37223;Laerm;28026;48.562;14.440;2023-02-15T06:53:02;42.86;40.33;49.56;;
37223;Laerm;28026;48.562;14.440;2023-02-15T06:55:33;44.68;40.89;58.20;;
37223;Laerm;28026;48.562;14.440;2023-02-15T06:58:04;43.65;40.33;52.08;;
37223;Laerm;28026;48.562;14.440;2023-02-15T07:00:35;44.45;40.89;50.09;;
37223;Laerm;28026;48.562;14.440;2023-02-15T07:03:06;43.91;40.71;48.07;;
37223;Laerm;28026;48.562;14.440;2023-02-15T07:05:37;44.70;41.75;50.23;;
37223;Laerm;28026;48.562;14.440;2023-02-15T07:08:08;44.70;41.68;55.91;;
37223;Laerm;28026;48.562;14.440;2023-02-15T07:10:38;44.65;42.22;49.84;;
37223;Laerm;28026;48.562;14.440;2023-02-15T07:13:09;44.71;41.22;52.86;;
37223;Laerm;28026;48.562;14.440;2023-02-15T07:15:40;43.54;40.43;48.77;;
37223;Laerm;28026;48.562;14.440;2023-02-15T07:18:11;42.95;40.13;48.51;;
37223;Laerm;28026;48.562;14.440;2023-02-15T07:20:42;43.26;40.43;53.76;;
37223;Laerm;28026;48.562;14.440;2023-02-15T07:23:13;45.39;41.68;56.22;;
37223;Laerm;28026;48.562;14.440;2023-02-15T07:25:44;44.10;41.46;55.27;;
37223;Laerm;28026;48.562;14.440;2023-02-15T07:28:15;44.33;39.81;58.77;;
37223;Laerm;28026;48.562;14.440;2023-02-15T07:30:46;43.73;39.92;52.81;;
37223;Laerm;28026;48.562;14.440;2023-02-15T07:33:17;42.44;39.70;51.59;;
37223;Laerm;28026;48.562;14.440;2023-02-15T07:35:59;42.73;39.58;54.89;;
37223;Laerm;28026;48.562;14.440;2023-02-15T07:38:39;43.82;40.43;50.65;;
37223;Laerm;28026;48.562;14.440;2023-02-15T07:41:14;43.65;40.03;57.10;;
37223;Laerm;28026;48.562;14.440;2023-02-15T07:43:48;44.80;42.03;57.04;;
37223;Laerm;28026;48.562;14.440;2023-02-15T07:46:19;45.53;40.89;69.67;;
37223;Laerm;28026;48.562;14.440;2023-02-15T07:48:51;42.75;38.67;50.00;;
37223;Laerm;28026;48.562;14.440;2023-02-15T07:51:22;43.33;39.21;56.78;;
37223;Laerm;28026;48.562;14.440;2023-02-15T07:53:53;43.23;39.92;48.66;;
37223;Laerm;28026;48.562;14.440;2023-02-15T07:56:24;43.89;40.89;63.08;;
37223;Laerm;28026;48.562;14.440;2023-02-15T07:58:55;49.97;40.71;65.84;;
37223;Laerm;28026;48.562;14.440;2023-02-15T08:01:36;43.18;40.71;48.66;;
37223;Laerm;28026;48.562;14.440;2023-02-15T08:04:07;49.55;41.89;65.56;;
37223;Laerm;28026;48.562;14.440;2023-02-15T08:06:40;44.89;41.46;56.97;;
37223;Laerm;28026;48.562;14.440;2023-02-15T08:09:11;44.21;40.33;61.83;;
37223;Laerm;28026;48.562;14.440;2023-02-15T08:11:42;53.43;40.88;71.64;;
37223;Laerm;28026;48.562;14.440;2023-02-15T08:14:20;45.52;39.92;65.81;;
37223;Laerm;28026;48.562;14.440;2023-02-15T08:16:54;43.76;38.37;60.38;;
37223;Laerm;28026;48.562;14.440;2023-02-15T08:19:30;45.09;40.33;57.85;;
37223;Laerm;28026;48.562;14.440;2023-02-15T08:22:06;46.28;40.89;61.98;;
37223;Laerm;28026;48.562;14.440;2023-02-15T08:24:37;43.40;40.43;49.77;;
37223;Laerm;28026;48.562;14.440;2023-02-15T08:27:11;43.95;40.13;57.29;;
37223;Laerm;28026;48.562;14.440;2023-02-15T08:29:42;44.96;40.71;56.50;;
37223;Laerm;28026;48.562;14.440;2023-02-15T08:32:13;49.92;37.70;63.34;;
37223;Laerm;28026;48.562;14.440;2023-02-15T08:34:44;43.70;39.46;58.82;;
37223;Laerm;28026;48.562;14.440;2023-02-15T08:37:15;43.09;38.81;53.09;;
37223;Laerm;28026;48.562;14.440;2023-02-15T08:39:46;44.96;38.67;59.10;;
37223;Laerm;28026;48.562;14.440;2023-02-15T08:42:17;45.85;39.58;59.40;;
37223;Laerm;28026;48.562;14.440;2023-02-15T08:44:48;51.08;40.03;77.25;;
37223;Laerm;28026;48.562;14.440;2023-02-15T08:47:21;47.52;38.37;69.38;;
37223;Laerm;28026;48.562;14.440;2023-02-15T08:49:51;45.30;39.58;60.17;;
37223;Laerm;28026;48.562;14.440;2023-02-15T08:52:23;45.88;39.08;60.72;;
37223;Laerm;28026;48.562;14.440;2023-02-15T08:54:53;43.99;39.21;54.45;;
37223;Laerm;28026;48.562;14.440;2023-02-15T08:57:26;43.23;39.21;55.28;;
37223;Laerm;28026;48.562;14.440;2023-02-15T08:59:57;43.52;38.37;55.32;;
37223;Laerm;28026;48.562;14.440;2023-02-15T09:02:29;44.96;39.92;56.99;;
37223;Laerm;28026;48.562;14.440;2023-02-15T09:05:00;44.36;38.37;60.87;;
37223;Laerm;28026;48.562;14.440;2023-02-15T09:07:30;42.48;38.18;54.46;;
37223;Laerm;28026;48.562;14.440;2023-02-15T09:10:01;42.85;38.81;52.52;;
37223;Laerm;28026;48.562;14.440;2023-02-15T09:12:32;43.58;38.52;63.00;;
37223;Laerm;28026;48.562;14.440;2023-02-15T09:15:03;43.20;38.05;64.29;;
37223;Laerm;28026;48.562;14.440;2023-02-15T09:17:34;42.65;37.52;58.63;;
37223;Laerm;28026;48.562;14.440;2023-02-15T09:20:06;44.34;36.91;63.81;;
37223;Laerm;28026;48.562;14.440;2023-02-15T09:22:38;46.43;37.88;71.12;;
37223;Laerm;28026;48.562;14.440;2023-02-15T09:25:09;44.86;38.74;59.91;;
37223;Laerm;28026;48.562;14.440;2023-02-15T09:27:39;42.77;38.37;59.49;;
37223;Laerm;28026;48.562;14.440;2023-02-15T09:30:12;42.12;36.69;54.73;;
37223;Laerm;28026;48.562;14.440;2023-02-15T09:32:43;43.61;37.12;69.57;;
37223;Laerm;28026;48.562;14.440;2023-02-15T09:35:16;43.91;37.70;62.08;;
37223;Laerm;28026;48.562;14.440;2023-02-15T09:37:47;47.65;37.88;73.97;;
37223;Laerm;28026;48.562;14.440;2023-02-15T09:40:18;44.60;38.67;66.17;;
37223;Laerm;28026;48.562;14.440;2023-02-15T09:43:38;44.92;37.88;71.79;;
37223;Laerm;28026;48.562;14.440;2023-02-15T09:46:33;47.65;36.91;70.88;;
37223;Laerm;28026;48.562;14.440;2023-02-15T10:05:46;43.01;35.66;62.59;;
37223;Laerm;28026;48.562;14.440;2023-02-15T10:12:08;46.35;37.52;67.29;;
37223;Laerm;28026;48.562;14.440;2023-02-15T10:21:05;48.77;38.21;69.96;;
37223;Laerm;28026;48.562;14.440;2023-02-15T10:26:47;46.41;36.91;67.99;;
37223;Laerm;28026;48.562;14.440;2023-02-15T10:30:12;47.02;38.05;68.45;;
37223;Laerm;28026;48.562;14.440;2023-02-15T10:33:12;52.34;37.12;76.52;;
37223;Laerm;28026;48.562;14.440;2023-02-15T10:39:44;46.69;38.47;69.60;;
37223;Laerm;28026;48.562;14.440;2023-02-15T10:46:52;45.49;37.70;68.63;;
37223;Laerm;28026;48.562;14.440;2023-02-15T10:56:25;43.96;37.70;62.83;;
37223;Laerm;28026;48.562;14.440;2023-02-15T11:08:11;43.19;38.81;57.05;;
37223;Laerm;28026;48.562;14.440;2023-02-15T11:11:01;42.04;36.91;57.04;;
37223;Laerm;28026;48.562;14.440;2023-02-15T11:13:45;43.48;38.21;66.08;;
37223;Laerm;28026;48.562;14.440;2023-02-15T11:16:31;43.99;37.70;70.59;;
37223;Laerm;28026;48.562;14.440;2023-02-15T11:19:21;49.57;36.34;69.14;;
37223;Laerm;28026;48.562;14.440;2023-02-15T11:22:01;43.13;36.45;64.34;;
37223;Laerm;28026;48.562;14.440;2023-02-15T11:24:42;44.27;38.52;59.39;;
37223;Laerm;28026;48.562;14.440;2023-02-15T11:27:19;43.11;36.69;58.10;;
37223;Laerm;28026;48.562;14.440;2023-02-15T11:30:13;42.40;38.05;59.82;;
37223;Laerm;28026;48.562;14.440;2023-02-15T11:32:50;42.93;38.21;60.96;;
37223;Laerm;28026;48.562;14.440;2023-02-15T11:35:33;45.31;38.05;60.07;;
37223;Laerm;28026;48.562;14.440;2023-02-15T11:38:31;43.78;39.58;64.28;;
37223;Laerm;28026;48.562;14.440;2023-02-15T11:41:19;46.10;38.37;65.48;;
37223;Laerm;28026;48.562;14.440;2023-02-15T11:44:11;45.10;39.34;58.75;;
37223;Laerm;28026;48.562;14.440;2023-02-15T11:46:46;43.15;38.81;56.78;;
37223;Laerm;28026;48.562;14.440;2023-02-15T11:49:32;42.21;37.70;52.63;;
37223;Laerm;28026;48.562;14.440;2023-02-15T11:52:13;44.03;39.34;59.15;;
37223;Laerm;28026;48.562;14.440;2023-02-15T11:54:50;43.24;39.46;54.11;;
37223;Laerm;28026;48.562;14.440;2023-02-15T11:57:39;43.88;40.23;51.15;;
37223;Laerm;28026;48.562;14.440;2023-02-15T12:00:42;44.42;39.58;57.98;;
37223;Laerm;28026;48.562;14.440;2023-02-15T12:03:34;41.63;38.52;49.82;;
37223;Laerm;28026;48.562;14.440;2023-02-15T12:06:45;42.22;38.21;58.95;;
37223;Laerm;28026;48.562;14.440;2023-02-15T12:09:48;43.33;38.67;55.12;;
37223;Laerm;28026;48.562;14.440;2023-02-15T12:12:33;44.66;39.81;56.84;;
37223;Laerm;28026;48.562;14.440;2023-02-15T12:15:12;44.19;39.58;55.65;;
37223;Laerm;28026;48.562;14.440;2023-02-15T12:17:54;44.21;40.13;54.98;;
37223;Laerm;28026;48.562;14.440;2023-02-15T12:20:32;42.40;39.34;53.11;;
37223;Laerm;28026;48.562;14.440;2023-02-15T12:23:13;42.05;38.81;53.64;;
37223;Laerm;28026;48.562;14.440;2023-02-15T12:25:54;43.10;39.46;59.14;;
37223;Laerm;28026;48.562;14.440;2023-02-15T12:28:49;43.41;38.21;55.95;;
37223;Laerm;28026;48.562;14.440;2023-02-15T12:31:36;44.82;38.21;62.88;;
37223;Laerm;28026;48.562;14.440;2023-02-15T12:34:25;46.21;37.70;73.39;;
37223;Laerm;28026;48.562;14.440;2023-02-15T12:37:09;46.28;38.05;64.90;;
37223;Laerm;28026;48.562;14.440;2023-02-15T12:39:59;46.22;37.70;70.23;;
37223;Laerm;28026;48.562;14.440;2023-02-15T12:42:44;47.39;38.52;74.88;;
37223;Laerm;28026;48.562;14.440;2023-02-15T12:45:33;44.33;38.52;64.84;;
37223;Laerm;28026;48.562;14.440;2023-02-15T12:48:20;46.31;38.21;67.11;;
37223;Laerm;28026;48.562;14.440;2023-02-15T12:50:51;44.73;39.08;68.92;;
37223;Laerm;28026;48.562;14.440;2023-02-15T12:53:35;47.90;37.88;70.71;;
37223;Laerm;28026;48.562;14.440;2023-02-15T12:56:10;47.55;38.21;66.48;;
37223;Laerm;28026;48.562;14.440;2023-02-15T12:58:41;45.87;38.21;69.50;;
37223;Laerm;28026;48.562;14.440;2023-02-15T13:01:17;45.78;37.32;64.17;;
37223;Laerm;28026;48.562;14.440;2023-02-15T13:04:03;42.64;37.70;54.75;;
37223;Laerm;28026;48.562;14.440;2023-02-15T13:06:46;42.93;38.95;55.58;;
37223;Laerm;28026;48.562;14.440;2023-02-15T13:12:24;43.38;38.37;68.02;;
37223;Laerm;28026;48.562;14.440;2023-02-15T13:14:58;43.26;38.95;64.30;;
37223;Laerm;28026;48.562;14.440;2023-02-15T13:17:33;50.27;38.67;72.31;;
37223;Laerm;28026;48.562;14.440;2023-02-15T13:20:18;48.80;38.37;73.35;;
37223;Laerm;28026;48.562;14.440;2023-02-15T13:23:03;46.52;38.21;71.10;;
37223;Laerm;28026;48.562;14.440;2023-02-15T13:25:45;45.59;38.52;68.41;;
37223;Laerm;28026;48.562;14.440;2023-02-15T13:28:32;43.91;38.81;66.84;;
37223;Laerm;28026;48.562;14.440;2023-02-15T13:31:19;43.08;38.52;61.65;;
37223;Laerm;28026;48.562;14.440;2023-02-15T13:33:59;42.80;38.95;58.00;;
37223;Laerm;28026;48.562;14.440;2023-02-15T13:39:53;45.32;39.21;65.80;;
37223;Laerm;28026;48.562;14.440;2023-02-15T13:42:56;43.57;38.37;62.39;;
37223;Laerm;28026;48.562;14.440;2023-02-15T13:46:14;44.26;39.08;59.30;;
37223;Laerm;28026;48.562;14.440;2023-02-15T13:52:24;43.09;38.05;62.12;;
37223;Laerm;28026;48.562;14.440;2023-02-15T13:55:28;45.68;39.08;68.55;;
37223;Laerm;28026;48.562;14.440;2023-02-15T13:58:54;46.63;38.52;68.43;;
37223;Laerm;28026;48.562;14.440;2023-02-15T14:02:07;48.74;38.05;78.20;;
37223;Laerm;28026;48.562;14.440;2023-02-15T14:04:38;53.83;39.21;76.59;;
37223;Laerm;28026;48.562;14.440;2023-02-15T14:14:40;43.98;38.37;64.93;;
37223;Laerm;28026;48.562;14.440;2023-02-15T14:20:54;44.81;39.81;62.89;;
37223;Laerm;28026;48.562;14.440;2023-02-15T14:30:34;44.70;39.70;57.53;;
37223;Laerm;28026;48.562;14.440;2023-02-15T14:33:34;44.05;38.95;58.18;;
37223;Laerm;28026;48.562;14.440;2023-02-15T14:36:16;43.26;38.05;55.55;;
37223;Laerm;28026;48.562;14.440;2023-02-15T14:39:36;44.41;39.34;61.70;;
37223;Laerm;28026;48.562;14.440;2023-02-15T14:46:45;44.57;39.34;62.00;;
37223;Laerm;28026;48.562;14.440;2023-02-15T14:49:28;43.75;39.92;55.46;;
37223;Laerm;28026;48.562;14.440;2023-02-15T14:52:06;46.26;40.89;66.35;;
37223;Laerm;28026;48.562;14.440;2023-02-15T14:59:53;44.93;39.81;59.59;;
37223;Laerm;28026;48.562;14.440;2023-02-15T15:02:47;45.07;39.81;72.51;;
37223;Laerm;28026;48.562;14.440;2023-02-15T15:05:49;43.50;39.34;57.27;;
37223;Laerm;28026;48.562;14.440;2023-02-15T15:08:38;44.18;39.70;56.66;;
37223;Laerm;28026;48.562;14.440;2023-02-15T15:14:00;44.03;39.08;60.50;;
37223;Laerm;28026;48.562;14.440;2023-02-15T15:19:12;44.74;39.21;62.19;;
37223;Laerm;28026;48.562;14.440;2023-02-15T15:22:04;44.02;39.81;56.84;;
37223;Laerm;28026;48.562;14.440;2023-02-15T15:27:50;44.16;38.52;59.73;;
37223;Laerm;28026;48.562;14.440;2023-02-15T15:42:50;43.90;39.58;56.83;;
37223;Laerm;28026;48.562;14.440;2023-02-15T15:48:35;44.28;40.89;53.57;;
37223;Laerm;28026;48.562;14.440;2023-02-15T15:51:31;43.78;40.13;56.30;;
37223;Laerm;28026;48.562;14.440;2023-02-15T15:54:03;44.21;39.92;51.65;;
37223;Laerm;28026;48.562;14.440;2023-02-15T15:56:36;45.35;41.06;58.63;;
37223;Laerm;28026;48.562;14.440;2023-02-15T15:59:22;45.63;39.21;62.06;;
37223;Laerm;28026;48.562;14.440;2023-02-15T16:01:55;42.34;36.45;56.24;;
37223;Laerm;28026;48.562;14.440;2023-02-15T16:04:31;43.45;38.52;65.54;;
37223;Laerm;28026;48.562;14.440;2023-02-15T16:10:03;42.47;37.88;54.76;;
37223;Laerm;28026;48.562;14.440;2023-02-15T16:12:38;43.27;39.21;59.05;;
37223;Laerm;28026;48.562;14.440;2023-02-15T16:15:27;42.22;37.88;58.35;;
37223;Laerm;28026;48.562;14.440;2023-02-15T16:18:02;42.98;36.20;57.22;;
37223;Laerm;28026;48.562;14.440;2023-02-15T16:20:36;46.46;37.70;63.02;;
37223;Laerm;28026;48.562;14.440;2023-02-15T16:23:23;42.45;38.52;55.89;;
37223;Laerm;28026;48.562;14.440;2023-02-15T16:28:53;42.44;38.05;60.76;;
37223;Laerm;28026;48.562;14.440;2023-02-15T16:31:24;41.00;35.36;56.56;;
37223;Laerm;28026;48.562;14.440;2023-02-15T16:33:55;40.37;35.94;49.21;;
37223;Laerm;28026;48.562;14.440;2023-02-15T16:36:28;42.73;35.36;55.09;;
37223;Laerm;28026;48.562;14.440;2023-02-15T16:41:30;42.84;37.88;50.00;;
37223;Laerm;28026;48.562;14.440;2023-02-15T16:44:20;42.08;37.32;51.81;;
37223;Laerm;28026;48.562;14.440;2023-02-15T16:46:53;42.92;39.08;47.61;;
37223;Laerm;28026;48.562;14.440;2023-02-15T16:49:28;42.14;37.52;52.84;;
37223;Laerm;28026;48.562;14.440;2023-02-15T16:52:04;42.16;36.69;47.16;;
37223;Laerm;28026;48.562;14.440;2023-02-15T16:54:36;44.18;36.69;67.99;;
37223;Laerm;28026;48.562;14.440;2023-02-15T16:57:21;49.58;38.05;77.52;;
37223;Laerm;28026;48.562;14.440;2023-02-15T17:00:04;43.39;38.05;63.26;;
37223;Laerm;28026;48.562;14.440;2023-02-15T17:02:35;41.59;35.36;47.76;;